sensor_id;sensor_type;location;lat;lon;timestamp;pressure;altitude;pressure_sealevel;temperature;humidity
14253;BME280;7210;51.502;10.722;2023-04-05T00:00:12;100527.50;;;-0.02;96.52
14253;BME280;7210;51.502;10.722;2023-04-05T00:02:44;100524.22;;;-0.03;96.99
14253;BME280;7210;51.502;10.722;2023-04-05T00:05:11;100506.81;;;-0.13;96.96
14253;BME280;7210;51.502;10.722;2023-04-05T00:07:39;100509.84;;;-0.08;96.40
14253;BME280;7210;51.502;10.722;2023-04-05T00:10:07;100516.00;;;-0.08;96.82
14253;BME280;7210;51.502;10.722;2023-04-05T00:12:35;100511.63;;;-0.08;97.38
14253;BME280;7210;51.502;10.722;2023-04-05T00:15:03;100517.09;;;-0.02;97.03
14253;BME280;7210;51.502;10.722;2023-04-05T00:17:31;100517.09;;;-0.02;97.16
14253;BME280;7210;51.502;10.722;2023-04-05T00:19:58;100519.28;;;0.03;97.79
14253;BME280;7210;51.502;10.722;2023-04-05T00:22:26;100514.91;;;0.03;97.45
14253;BME280;7210;51.502;10.722;2023-04-05T00:24:56;100504.50;;;0.03;98.13
14253;BME280;7210;51.502;10.722;2023-04-05T00:27:23;100505.47;;;0.02;98.36
14253;BME280;7210;51.502;10.722;2023-04-05T00:29:52;100504.66;;;0.02;98.17
14253;BME280;7210;51.502;10.722;2023-04-05T00:32:19;100501.22;;;0.01;98.30
14253;BME280;7210;51.502;10.722;2023-04-05T00:34:46;100505.63;;;0.01;98.33
14253;BME280;7210;51.502;10.722;2023-04-05T00:37:14;100502.88;;;0.02;98.11
14253;BME280;7210;51.502;10.722;2023-04-05T00:39:41;100494.94;;;0.04;98.66
14253;BME280;7210;51.502;10.722;2023-04-05T00:42:08;100487.97;;;0.04;98.78
14253;BME280;7210;51.502;10.722;2023-04-05T00:44:35;100480.44;;;0.01;98.60
14253;BME280;7210;51.502;10.722;2023-04-05T00:47:05;100483.19;;;0.00;98.90
14253;BME280;7210;51.502;10.722;2023-04-05T00:49:34;100468.94;;;-0.06;98.77
14253;BME280;7210;51.502;10.722;2023-04-05T00:52:02;100468.56;;;-0.10;98.95
14253;BME280;7210;51.502;10.722;2023-04-05T00:54:30;100460.47;;;-0.17;98.80
14253;BME280;7210;51.502;10.722;2023-04-05T00:56:58;100462.13;;;-0.25;99.29
14253;BME280;7210;51.502;10.722;2023-04-05T00:59:26;100445.47;;;-0.32;99.52
14253;BME280;7210;51.502;10.722;2023-04-05T01:02:00;100447.63;;;-0.37;99.82
14253;BME280;7210;51.502;10.722;2023-04-05T01:04:33;100445.31;;;-0.40;99.66
14253;BME280;7210;51.502;10.722;2023-04-05T01:07:11;100435.59;;;-0.48;100.00
14253;BME280;7210;51.502;10.722;2023-04-05T01:09:48;100427.53;;;-0.54;99.62
14253;BME280;7210;51.502;10.722;2023-04-05T01:12:22;100429.03;;;-0.61;99.54
14253;BME280;7210;51.502;10.722;2023-04-05T01:14:56;100428.88;;;-0.69;99.90
14253;BME280;7210;51.502;10.722;2023-04-05T01:17:26;100424.22;;;-0.75;100.00
14253;BME280;7210;51.502;10.722;2023-04-05T01:19:58;100422.72;;;-0.78;100.00
14253;BME280;7210;51.502;10.722;2023-04-05T01:26:45;100424.06;;;-0.83;100.00
14253;BME280;7210;51.502;10.722;2023-04-05T01:29:49;100425.31;;;-0.87;100.00
14253;BME280;7210;51.502;10.722;2023-04-05T01:32:38;100419.69;;;-0.92;100.00
14253;BME280;7210;51.502;10.722;2023-04-05T01:35:16;100423.53;;;-0.96;100.00
14253;BME280;7210;51.502;10.722;2023-04-05T01:37:51;100421.84;;;-0.97;100.00
14253;BME280;7210;51.502;10.722;2023-04-05T01:40:21;100413.69;;;-1.02;100.00
14253;BME280;7210;51.502;10.722;2023-04-05T01:42:48;100411.47;;;-1.07;100.00
14253;BME280;7210;51.502;10.722;2023-04-05T01:45:17;100401.91;;;-1.16;100.00
14253;BME280;7210;51.502;10.722;2023-04-05T01:47:44;100404.88;;;-1.20;100.00
14253;BME280;7210;51.502;10.722;2023-04-05T01:50:12;100404.34;;;-1.24;100.00
14253;BME280;7210;51.502;10.722;2023-04-05T01:52:39;100410.06;;;-1.20;100.00
14253;BME280;7210;51.502;10.722;2023-04-05T01:55:08;100425.09;;;-1.14;100.00
14253;BME280;7210;51.502;10.722;2023-04-05T01:57:36;100420.06;;;-1.16;100.00
14253;BME280;7210;51.502;10.722;2023-04-05T02:00:05;100420.19;;;-1.17;100.00
14253;BME280;7210;51.502;10.722;2023-04-05T02:02:40;100412.66;;;-1.20;100.00
14253;BME280;7210;51.502;10.722;2023-04-05T02:05:08;100407.06;;;-1.25;100.00
14253;BME280;7210;51.502;10.722;2023-04-05T02:11:00;100404.44;;;-1.35;100.00
14253;BME280;7210;51.502;10.722;2023-04-05T02:13:28;100398.00;;;-1.40;100.00
14253;BME280;7210;51.502;10.722;2023-04-05T02:15:56;100384.88;;;-1.48;100.00
14253;BME280;7210;51.502;10.722;2023-04-05T02:21:52;100383.47;;;-1.62;100.00
14253;BME280;7210;51.502;10.722;2023-04-05T02:24:19;100391.34;;;-1.63;100.00
14253;BME280;7210;51.502;10.722;2023-04-05T02:26:47;100387.38;;;-1.67;100.00
14253;BME280;7210;51.502;10.722;2023-04-05T02:29:14;100374.50;;;-1.78;100.00
14253;BME280;7210;51.502;10.722;2023-04-05T02:31:41;100393.34;;;-1.76;100.00
14253;BME280;7210;51.502;10.722;2023-04-05T02:34:09;100387.84;;;-1.83;100.00
14253;BME280;7210;51.502;10.722;2023-04-05T02:36:36;100377.88;;;-1.87;100.00
14253;BME280;7210;51.502;10.722;2023-04-05T02:39:05;100376.25;;;-1.88;100.00
14253;BME280;7210;51.502;10.722;2023-04-05T02:41:32;100371.31;;;-1.91;100.00
14253;BME280;7210;51.502;10.722;2023-04-05T02:43:59;100376.75;;;-1.94;100.00
14253;BME280;7210;51.502;10.722;2023-04-05T02:46:29;100376.06;;;-1.96;100.00
14253;BME280;7210;51.502;10.722;2023-04-05T02:48:57;100375.34;;;-1.98;100.00
14253;BME280;7210;51.502;10.722;2023-04-05T02:51:27;100372.06;;;-2.00;100.00
14253;BME280;7210;51.502;10.722;2023-04-05T02:53:55;100370.44;;;-2.01;100.00
14253;BME280;7210;51.502;10.722;2023-04-05T02:56:25;100366.91;;;-2.00;100.00
14253;BME280;7210;51.502;10.722;2023-04-05T02:58:53;100370.16;;;-1.98;100.00
14253;BME280;7210;51.502;10.722;2023-04-05T03:01:24;100387.41;;;-1.88;100.00
14253;BME280;7210;51.502;10.722;2023-04-05T03:03:51;100386.06;;;-1.82;100.00
14253;BME280;7210;51.502;10.722;2023-04-05T03:06:19;100384.31;;;-1.82;100.00
14253;BME280;7210;51.502;10.722;2023-04-05T03:08:48;100382.78;;;-1.84;100.00
14253;BME280;7210;51.502;10.722;2023-04-05T03:11:20;100390.19;;;-1.80;100.00
14253;BME280;7210;51.502;10.722;2023-04-05T03:13:53;100383.63;;;-1.84;100.00
14253;BME280;7210;51.502;10.722;2023-04-05T03:16:40;100389.09;;;-1.77;100.00
14253;BME280;7210;51.502;10.722;2023-04-05T03:19:28;100395.41;;;-1.70;100.00
14253;BME280;7210;51.502;10.722;2023-04-05T03:22:03;100382.91;;;-1.65;100.00
14253;BME280;7210;51.502;10.722;2023-04-05T03:24:35;100387.28;;;-1.56;100.00
14253;BME280;7210;51.502;10.722;2023-04-05T03:27:05;100360.94;;;-1.61;100.00
14253;BME280;7210;51.502;10.722;2023-04-05T03:29:42;100371.06;;;-1.49;100.00
14253;BME280;7210;51.502;10.722;2023-04-05T03:32:14;100363.31;;;-1.49;100.00
14253;BME280;7210;51.502;10.722;2023-04-05T03:34:48;100360.59;;;-1.47;100.00
14253;BME280;7210;51.502;10.722;2023-04-05T03:37:17;100363.84;;;-1.45;100.00
14253;BME280;7210;51.502;10.722;2023-04-05T03:39:51;100358.69;;;-1.45;100.00
14253;BME280;7210;51.502;10.722;2023-04-05T03:42:19;100355.41;;;-1.47;100.00
14253;BME280;7210;51.502;10.722;2023-04-05T03:44:51;100344.34;;;-1.49;100.00
14253;BME280;7210;51.502;10.722;2023-04-05T03:47:18;100336.81;;;-1.52;100.00
14253;BME280;7210;51.502;10.722;2023-04-05T03:49:45;100336.13;;;-1.54;100.00
14253;BME280;7210;51.502;10.722;2023-04-05T03:52:12;100333.66;;;-1.56;100.00
14253;BME280;7210;51.502;10.722;2023-04-05T03:54:44;100330.53;;;-1.59;100.00
14253;BME280;7210;51.502;10.722;2023-04-05T03:57:14;100317.16;;;-1.64;100.00
14253;BME280;7210;51.502;10.722;2023-04-05T03:59:43;100312.38;;;-1.69;100.00
14253;BME280;7210;51.502;10.722;2023-04-05T04:02:13;100312.78;;;-1.73;100.00
14253;BME280;7210;51.502;10.722;2023-04-05T04:04:41;100309.75;;;-1.78;100.00
14253;BME280;7210;51.502;10.722;2023-04-05T04:07:08;100310.00;;;-1.81;100.00
14253;BME280;7210;51.502;10.722;2023-04-05T04:09:35;100298.69;;;-1.80;100.00
14253;BME280;7210;51.502;10.722;2023-04-05T04:12:08;100308.91;;;-1.79;100.00
14253;BME280;7210;51.502;10.722;2023-04-05T04:14:40;100313.84;;;-1.76;100.00
14253;BME280;7210;51.502;10.722;2023-04-05T04:17:31;100302.66;;;-1.76;100.00
14253;BME280;7210;51.502;10.722;2023-04-05T04:20:20;100299.66;;;-1.81;100.00
14253;BME280;7210;51.502;10.722;2023-04-05T04:22:57;100296.63;;;-1.86;100.00
14253;BME280;7210;51.502;10.722;2023-04-05T04:25:43;100298.53;;;-1.88;100.00
14253;BME280;7210;51.502;10.722;2023-04-05T04:28:40;100303.16;;;-1.82;100.00
14253;BME280;7210;51.502;10.722;2023-04-05T04:31:35;100297.06;;;-1.81;100.00
14253;BME280;7210;51.502;10.722;2023-04-05T04:34:34;100298.53;;;-1.88;100.00
14253;BME280;7210;51.502;10.722;2023-04-05T04:37:31;100291.97;;;-1.92;100.00
14253;BME280;7210;51.502;10.722;2023-04-05T04:40:17;100295.38;;;-1.92;100.00
14253;BME280;7210;51.502;10.722;2023-04-05T04:43:16;100298.53;;;-1.88;100.00
14253;BME280;7210;51.502;10.722;2023-04-05T04:46:12;100305.25;;;-1.76;100.00
14253;BME280;7210;51.502;10.722;2023-04-05T04:49:02;100303.59;;;-1.77;100.00
14253;BME280;7210;51.502;10.722;2023-04-05T04:51:32;100293.50;;;-1.80;100.00
14253;BME280;7210;51.502;10.722;2023-04-05T04:54:00;100292.13;;;-1.84;100.00
14253;BME280;7210;51.502;10.722;2023-04-05T04:56:28;100294.03;;;-1.86;100.00
14253;BME280;7210;51.502;10.722;2023-04-05T04:58:57;100291.44;;;-1.86;100.00
14253;BME280;7210;51.502;10.722;2023-04-05T05:01:24;100291.44;;;-1.86;100.00
14253;BME280;7210;51.502;10.722;2023-04-05T05:03:56;100298.94;;;-1.83;100.00
14253;BME280;7210;51.502;10.722;2023-04-05T05:06:28;100296.66;;;-1.77;100.00
14253;BME280;7210;51.502;10.722;2023-04-05T05:08:57;100307.31;;;-1.70;100.00
14253;BME280;7210;51.502;10.722;2023-04-05T05:11:26;100303.63;;;-1.68;100.00
14253;BME280;7210;51.502;10.722;2023-04-05T05:13:53;100298.06;;;-1.63;100.00
14253;BME280;7210;51.502;10.722;2023-04-05T05:16:23;100303.69;;;-1.58;100.00
14253;BME280;7210;51.502;10.722;2023-04-05T05:18:56;100308.31;;;-1.52;100.00
14253;BME280;7210;51.502;10.722;2023-04-05T05:21:27;100310.25;;;-1.45;100.00
14253;BME280;7210;51.502;10.722;2023-04-05T05:23:59;100313.81;;;-1.36;100.00
14253;BME280;7210;51.502;10.722;2023-04-05T05:26:26;100321.88;;;-1.30;100.00
14253;BME280;7210;51.502;10.722;2023-04-05T05:29:00;100312.63;;;-1.23;100.00
14253;BME280;7210;51.502;10.722;2023-04-05T05:34:20;100315.34;;;-1.05;100.00
14253;BME280;7210;51.502;10.722;2023-04-05T05:36:51;100315.63;;;-0.89;100.00
14253;BME280;7210;51.502;10.722;2023-04-05T05:39:21;100308.25;;;-0.84;100.00
14253;BME280;7210;51.502;10.722;2023-04-05T05:41:50;100308.81;;;-0.81;100.00
14253;BME280;7210;51.502;10.722;2023-04-05T05:44:18;100300.63;;;-0.76;100.00
14253;BME280;7210;51.502;10.722;2023-04-05T05:46:46;100295.97;;;-0.73;100.00
14253;BME280;7210;51.502;10.722;2023-04-05T05:49:14;100289.41;;;-0.67;100.00
14253;BME280;7210;51.502;10.722;2023-04-05T05:51:41;100290.50;;;-0.60;100.00
14253;BME280;7210;51.502;10.722;2023-04-05T05:54:08;100295.38;;;-0.38;100.00
14253;BME280;7210;51.502;10.722;2023-04-05T05:56:36;100280.88;;;-0.31;100.00
14253;BME280;7210;51.502;10.722;2023-04-05T05:59:04;100272.78;;;-0.28;100.00
14253;BME280;7210;51.502;10.722;2023-04-05T06:01:31;100272.22;;;-0.22;100.00
14253;BME280;7210;51.502;10.722;2023-04-05T06:03:59;100267.44;;;-0.17;100.00
14253;BME280;7210;51.502;10.722;2023-04-05T06:06:26;100266.56;;;-0.08;100.00
14253;BME280;7210;51.502;10.722;2023-04-05T06:08:55;100265.31;;;-0.05;100.00
14253;BME280;7210;51.502;10.722;2023-04-05T06:11:22;100254.25;;;-0.07;100.00
14253;BME280;7210;51.502;10.722;2023-04-05T06:13:52;100259.56;;;0.01;100.00
14253;BME280;7210;51.502;10.722;2023-04-05T06:16:21;100259.66;;;0.09;100.00
14253;BME280;7210;51.502;10.722;2023-04-05T06:18:48;100243.78;;;0.12;100.00
14253;BME280;7210;51.502;10.722;2023-04-05T06:21:16;100251.38;;;0.23;100.00
14253;BME280;7210;51.502;10.722;2023-04-05T06:23:43;100243.97;;;0.28;100.00
14253;BME280;7210;51.502;10.722;2023-04-05T06:26:16;100221.81;;;0.24;100.00
14253;BME280;7210;51.502;10.722;2023-04-05T06:28:45;100222.03;;;0.31;100.00
14253;BME280;7210;51.502;10.722;2023-04-05T06:31:15;100230.84;;;0.47;100.00
14253;BME280;7210;51.502;10.722;2023-04-05T06:33:43;100222.06;;;0.48;100.00
14253;BME280;7210;51.502;10.722;2023-04-05T06:36:10;100221.88;;;0.59;100.00
14253;BME280;7210;51.502;10.722;2023-04-05T06:38:38;100214.75;;;0.61;100.00
14253;BME280;7210;51.502;10.722;2023-04-05T06:41:05;100222.03;;;0.75;100.00
14253;BME280;7210;51.502;10.722;2023-04-05T06:43:32;100209.38;;;0.80;100.00
14253;BME280;7210;51.502;10.722;2023-04-05T06:46:02;100220.75;;;0.97;100.00
14253;BME280;7210;51.502;10.722;2023-04-05T06:48:34;100202.38;;;0.98;100.00
14253;BME280;7210;51.502;10.722;2023-04-05T06:51:03;100196.34;;;0.98;100.00
14253;BME280;7210;51.502;10.722;2023-04-05T06:53:30;100203.09;;;1.08;100.00
14253;BME280;7210;51.502;10.722;2023-04-05T06:55:59;100184.94;;;1.16;99.77
14253;BME280;7210;51.502;10.722;2023-04-05T06:58:26;100172.84;;;1.07;99.21
14253;BME280;7210;51.502;10.722;2023-04-05T07:00:54;100175.66;;;1.14;99.01
14253;BME280;7210;51.502;10.722;2023-04-05T07:03:21;100180.72;;;1.15;98.73
14253;BME280;7210;51.502;10.722;2023-04-05T07:05:55;100170.44;;;1.14;98.95
14253;BME280;7210;51.502;10.722;2023-04-05T07:08:24;100180.38;;;1.18;98.62
14253;BME280;7210;51.502;10.722;2023-04-05T07:10:52;100198.44;;;1.37;98.80
14253;BME280;7210;51.502;10.722;2023-04-05T07:13:21;100194.06;;;1.46;98.08
14253;BME280;7210;51.502;10.722;2023-04-05T07:15:49;100183.50;;;1.47;97.89
14253;BME280;7210;51.502;10.722;2023-04-05T07:18:18;100185.31;;;1.55;97.89
14253;BME280;7210;51.502;10.722;2023-04-05T07:20:47;100204.84;;;1.76;97.49
14253;BME280;7210;51.502;10.722;2023-04-05T07:23:16;100193.47;;;1.85;96.85
14253;BME280;7210;51.502;10.722;2023-04-05T07:25:43;100169.22;;;1.93;96.20
14253;BME280;7210;51.502;10.722;2023-04-05T07:28:10;100177.91;;;2.01;96.11
14253;BME280;7210;51.502;10.722;2023-04-05T07:30:37;100182.16;;;2.10;95.96
14253;BME280;7210;51.502;10.722;2023-04-05T07:33:05;100188.53;;;2.24;95.57
14253;BME280;7210;51.502;10.722;2023-04-05T07:35:32;100163.16;;;2.26;94.81
14253;BME280;7210;51.502;10.722;2023-04-05T07:37:59;100161.06;;;2.37;94.44
14253;BME280;7210;51.502;10.722;2023-04-05T07:40:27;100160.72;;;2.48;94.53
14253;BME280;7210;51.502;10.722;2023-04-05T07:43:08;100180.34;;;2.76;94.15
14253;BME280;7210;51.502;10.722;2023-04-05T07:45:36;100185.22;;;2.95;93.44
14253;BME280;7210;51.502;10.722;2023-04-05T07:48:03;100170.19;;;3.13;92.89
14253;BME280;7210;51.502;10.722;2023-04-05T07:50:30;100165.25;;;3.34;92.16
14253;BME280;7210;51.502;10.722;2023-04-05T07:52:57;100139.75;;;3.44;91.18
14253;BME280;7210;51.502;10.722;2023-04-05T07:55:24;100139.38;;;3.63;90.34
14253;BME280;7210;51.502;10.722;2023-04-05T07:57:54;100114.88;;;3.64;89.79
14253;BME280;7210;51.502;10.722;2023-04-05T08:00:22;100122.47;;;3.81;89.37
14253;BME280;7210;51.502;10.722;2023-04-05T08:02:49;100132.97;;;4.04;88.61
14253;BME280;7210;51.502;10.722;2023-04-05T08:05:17;100078.69;;;4.06;87.14
14253;BME280;7210;51.502;10.722;2023-04-05T08:07:44;100058.75;;;4.05;86.88
14253;BME280;7210;51.502;10.722;2023-04-05T08:10:11;100072.06;;;4.18;86.43
14253;BME280;7210;51.502;10.722;2023-04-05T08:12:38;100075.56;;;4.33;85.77
14253;BME280;7210;51.502;10.722;2023-04-05T08:15:08;100045.81;;;4.48;84.52
14253;BME280;7210;51.502;10.722;2023-04-05T08:17:35;99994.66;;;4.46;83.44
14253;BME280;7210;51.502;10.722;2023-04-05T08:20:03;99995.84;;;4.58;83.18
14253;BME280;7210;51.502;10.722;2023-04-05T08:22:30;99934.63;;;4.59;81.81
14253;BME280;7210;51.502;10.722;2023-04-05T08:24:58;99911.59;;;4.54;81.47
14253;BME280;7210;51.502;10.722;2023-04-05T08:27:25;99935.44;;;4.59;81.47
14253;BME280;7210;51.502;10.722;2023-04-05T08:29:52;99951.88;;;4.82;80.50
14253;BME280;7210;51.502;10.722;2023-04-05T08:32:20;99918.91;;;4.88;80.08
14253;BME280;7210;51.502;10.722;2023-04-05T08:34:47;99943.38;;;5.09;79.34
14253;BME280;7210;51.502;10.722;2023-04-05T08:37:20;99896.03;;;5.11;78.91
14253;BME280;7210;51.502;10.722;2023-04-05T08:39:48;99897.97;;;5.23;78.46
14253;BME280;7210;51.502;10.722;2023-04-05T08:42:17;99841.19;;;5.30;77.15
14253;BME280;7210;51.502;10.722;2023-04-05T08:44:45;99846.84;;;5.27;77.40
14253;BME280;7210;51.502;10.722;2023-04-05T08:47:19;99847.28;;;5.31;77.17
14253;BME280;7210;51.502;10.722;2023-04-05T08:49:47;99816.19;;;5.49;75.85
14253;BME280;7210;51.502;10.722;2023-04-05T08:52:15;99822.28;;;5.56;75.58
14253;BME280;7210;51.502;10.722;2023-04-05T08:54:43;99846.13;;;5.82;75.11
14253;BME280;7210;51.502;10.722;2023-04-05T08:57:11;99827.63;;;5.90;74.56
14253;BME280;7210;51.502;10.722;2023-04-05T08:59:43;99830.06;;;6.19;73.80
14253;BME280;7210;51.502;10.722;2023-04-05T09:02:17;99732.50;;;6.09;72.69
14253;BME280;7210;51.502;10.722;2023-04-05T09:04:47;99737.78;;;6.22;72.14
14253;BME280;7210;51.502;10.722;2023-04-05T09:07:15;99746.13;;;6.32;72.32
14253;BME280;7210;51.502;10.722;2023-04-05T09:09:47;99744.97;;;6.54;71.31
14253;BME280;7210;51.502;10.722;2023-04-05T09:12:16;99691.09;;;6.84;69.58
14253;BME280;7210;51.502;10.722;2023-04-05T09:14:47;99608.03;;;6.83;68.45
14253;BME280;7210;51.502;10.722;2023-04-05T09:17:17;99619.97;;;6.92;67.97
14253;BME280;7210;51.502;10.722;2023-04-05T09:19:46;99476.81;;;7.01;66.10
14253;BME280;7210;51.502;10.722;2023-04-05T09:22:14;99336.31;;;7.03;64.05
14253;BME280;7210;51.502;10.722;2023-04-05T09:24:45;99288.38;;;7.08;63.77
14253;BME280;7210;51.502;10.722;2023-04-05T09:27:16;99154.84;;;6.98;62.12
14253;BME280;7210;51.502;10.722;2023-04-05T09:29:48;99044.28;;;7.18;59.72
14253;BME280;7210;51.502;10.722;2023-04-05T09:32:26;98976.31;;;7.50;57.68
14253;BME280;7210;51.502;10.722;2023-04-05T09:34:58;99026.78;;;7.59;58.57
14253;BME280;7210;51.502;10.722;2023-04-05T09:37:31;98881.38;;;7.81;55.42
14253;BME280;7210;51.502;10.722;2023-04-05T09:40:02;98692.97;;;7.80;53.95
14253;BME280;7210;51.502;10.722;2023-04-05T09:42:43;98734.47;;;7.78;54.37
14253;BME280;7210;51.502;10.722;2023-04-05T09:45:12;98784.94;;;7.87;54.47
14253;BME280;7210;51.502;10.722;2023-04-05T09:47:54;98922.13;;;7.90;55.89
14253;BME280;7210;51.502;10.722;2023-04-05T09:50:23;98790.66;;;7.84;54.13
14253;BME280;7210;51.502;10.722;2023-04-05T09:53:06;98547.44;;;7.63;52.33
14253;BME280;7210;51.502;10.722;2023-04-05T09:55:34;98569.59;;;7.67;51.50
14253;BME280;7210;51.502;10.722;2023-04-05T09:58:02;98457.25;;;7.79;49.70
14253;BME280;7210;51.502;10.722;2023-04-05T10:00:30;98649.03;;;7.81;51.53
14253;BME280;7210;51.502;10.722;2023-04-05T10:02:58;98868.91;;;7.88;53.72
14253;BME280;7210;51.502;10.722;2023-04-05T10:05:28;98870.19;;;7.97;52.70
14253;BME280;7210;51.502;10.722;2023-04-05T10:08:03;98950.56;;;8.11;52.25
14253;BME280;7210;51.502;10.722;2023-04-05T10:10:36;98633.47;;;7.91;49.63
14253;BME280;7210;51.502;10.722;2023-04-05T10:13:12;98590.28;;;7.64;50.06
14253;BME280;7210;51.502;10.722;2023-04-05T10:15:46;98685.44;;;7.61;50.51
14253;BME280;7210;51.502;10.722;2023-04-05T10:18:20;98841.00;;;7.76;51.26
14253;BME280;7210;51.502;10.722;2023-04-05T10:20:53;99078.81;;;8.04;52.09
14253;BME280;7210;51.502;10.722;2023-04-05T10:23:27;99102.97;;;8.19;51.29
14253;BME280;7210;51.502;10.722;2023-04-05T10:26:07;98905.66;;;8.06;49.78
14253;BME280;7210;51.502;10.722;2023-04-05T10:28:42;98831.75;;;7.96;49.16
14253;BME280;7210;51.502;10.722;2023-04-05T10:31:24;99075.66;;;8.14;50.61
14253;BME280;7210;51.502;10.722;2023-04-05T10:34:03;99279.56;;;8.36;51.82
14253;BME280;7210;51.502;10.722;2023-04-05T10:36:40;99166.56;;;8.34;50.10
14253;BME280;7210;51.502;10.722;2023-04-05T10:39:12;99084.50;;;8.49;48.55
14253;BME280;7210;51.502;10.722;2023-04-05T10:41:47;98906.41;;;8.36;47.27
14253;BME280;7210;51.502;10.722;2023-04-05T10:44:15;98917.63;;;8.43;46.97
14253;BME280;7210;51.502;10.722;2023-04-05T10:46:45;98956.44;;;8.48;47.13
14253;BME280;7210;51.502;10.722;2023-04-05T10:49:21;98730.75;;;8.48;44.52
14253;BME280;7210;51.502;10.722;2023-04-05T10:51:55;98763.84;;;8.44;45.36
14253;BME280;7210;51.502;10.722;2023-04-05T10:54:22;98643.34;;;8.23;44.77
14253;BME280;7210;51.502;10.722;2023-04-05T10:56:50;98895.88;;;8.36;46.79
14253;BME280;7210;51.502;10.722;2023-04-05T10:59:19;98912.16;;;8.45;46.42
14253;BME280;7210;51.502;10.722;2023-04-05T11:01:48;99235.72;;;8.59;49.12
14253;BME280;7210;51.502;10.722;2023-04-05T11:04:16;99542.38;;;8.83;51.28
14253;BME280;7210;51.502;10.722;2023-04-05T11:06:43;99614.41;;;9.01;51.26
14253;BME280;7210;51.502;10.722;2023-04-05T11:09:16;99558.19;;;9.25;49.45
14253;BME280;7210;51.502;10.722;2023-04-05T11:11:51;99217.19;;;8.95;46.34
14253;BME280;7210;51.502;10.722;2023-04-05T11:14:21;99139.44;;;8.86;45.95
14253;BME280;7210;51.502;10.722;2023-04-05T11:16:53;99268.22;;;9.01;46.95
14253;BME280;7210;51.502;10.722;2023-04-05T11:19:49;99405.03;;;9.38;46.78
14253;BME280;7210;51.502;10.722;2023-04-05T11:22:25;99386.38;;;9.51;46.68
14253;BME280;7210;51.502;10.722;2023-04-05T11:24:56;99231.31;;;9.12;46.33
14253;BME280;7210;51.502;10.722;2023-04-05T11:27:28;99140.88;;;8.59;46.52
14253;BME280;7210;51.502;10.722;2023-04-05T11:29:57;99249.72;;;8.89;47.28
14253;BME280;7210;51.502;10.722;2023-04-05T11:32:40;99180.50;;;8.94;45.59
14253;BME280;7210;51.502;10.722;2023-04-05T11:35:13;99160.56;;;9.09;45.36
14253;BME280;7210;51.502;10.722;2023-04-05T11:38:05;99096.50;;;9.20;43.58
14253;BME280;7210;51.502;10.722;2023-04-05T11:40:37;98957.78;;;9.08;43.23
14253;BME280;7210;51.502;10.722;2023-04-05T11:43:07;99247.06;;;9.30;45.62
14253;BME280;7210;51.502;10.722;2023-04-05T11:45:36;99204.19;;;9.46;44.34
14253;BME280;7210;51.502;10.722;2023-04-05T11:48:06;99210.72;;;9.67;43.68
14253;BME280;7210;51.502;10.722;2023-04-05T11:50:34;99269.84;;;9.77;44.32
14253;BME280;7210;51.502;10.722;2023-04-05T11:53:16;99255.16;;;9.70;44.57
14253;BME280;7210;51.502;10.722;2023-04-05T11:55:47;99430.00;;;9.95;45.49
14253;BME280;7210;51.502;10.722;2023-04-05T11:58:16;99589.06;;;10.26;46.06
14253;BME280;7210;51.502;10.722;2023-04-05T12:00:45;99699.47;;;10.42;47.04
14253;BME280;7210;51.502;10.722;2023-04-05T12:03:52;99468.81;;;10.35;44.68
14253;BME280;7210;51.502;10.722;2023-04-05T12:06:22;99350.69;;;10.13;43.94
14253;BME280;7210;51.502;10.722;2023-04-05T12:08:57;99349.28;;;9.99;44.36
14253;BME280;7210;51.502;10.722;2023-04-05T12:11:27;99531.16;;;10.13;45.81
14253;BME280;7210;51.502;10.722;2023-04-05T12:13:57;99426.53;;;10.12;44.62
14253;BME280;7210;51.502;10.722;2023-04-05T12:16:25;99364.16;;;10.11;44.11
14253;BME280;7210;51.502;10.722;2023-04-05T12:18:53;99185.69;;;10.04;42.18
14253;BME280;7210;51.502;10.722;2023-04-05T12:21:22;99248.72;;;10.23;42.33
14253;BME280;7210;51.502;10.722;2023-04-05T12:23:57;99135.19;;;9.89;42.55
14253;BME280;7210;51.502;10.722;2023-04-05T12:26:26;99250.78;;;9.98;43.19
14253;BME280;7210;51.502;10.722;2023-04-05T12:29:02;99080.69;;;9.71;42.56
14253;BME280;7210;51.502;10.722;2023-04-05T12:31:41;99224.59;;;9.85;43.12
14253;BME280;7210;51.502;10.722;2023-04-05T12:34:11;99286.03;;;10.15;42.61
14253;BME280;7210;51.502;10.722;2023-04-05T12:36:43;99346.81;;;10.15;43.57
14253;BME280;7210;51.502;10.722;2023-04-05T12:39:10;99422.59;;;10.26;43.99
14253;BME280;7210;51.502;10.722;2023-04-05T12:41:40;99373.22;;;10.15;43.66
14253;BME280;7210;51.502;10.722;2023-04-05T12:44:14;99681.47;;;10.62;44.91
14253;BME280;7210;51.502;10.722;2023-04-05T12:46:44;99317.22;;;10.53;41.67
14253;BME280;7210;51.502;10.722;2023-04-05T12:49:19;99564.25;;;10.68;44.07
14253;BME280;7210;51.502;10.722;2023-04-05T12:51:51;99507.22;;;10.72;43.21
14253;BME280;7210;51.502;10.722;2023-04-05T12:54:22;99477.34;;;10.83;42.50
14253;BME280;7210;51.502;10.722;2023-04-05T12:57:02;99372.69;;;10.87;41.38
14253;BME280;7210;51.502;10.722;2023-04-05T12:59:34;99353.00;;;10.95;41.17
14253;BME280;7210;51.502;10.722;2023-04-05T13:02:01;99325.66;;;10.89;41.44
14253;BME280;7210;51.502;10.722;2023-04-05T13:04:29;99279.75;;;10.95;40.52
14253;BME280;7210;51.502;10.722;2023-04-05T13:07:00;99216.38;;;10.72;40.98
14253;BME280;7210;51.502;10.722;2023-04-05T13:09:27;99288.03;;;10.59;42.04
14253;BME280;7210;51.502;10.722;2023-04-05T13:11:58;99507.22;;;10.95;43.07
14253;BME280;7210;51.502;10.722;2023-04-05T13:14:26;99512.72;;;11.28;41.80
14253;BME280;7210;51.502;10.722;2023-04-05T13:16:53;99397.66;;;11.19;41.08
14253;BME280;7210;51.502;10.722;2023-04-05T13:19:20;99453.53;;;11.34;41.30
14253;BME280;7210;51.502;10.722;2023-04-05T13:21:48;99373.28;;;11.17;41.36
14253;BME280;7210;51.502;10.722;2023-04-05T13:24:15;99467.72;;;11.28;41.53
14253;BME280;7210;51.502;10.722;2023-04-05T13:26:42;99403.63;;;11.26;41.39
14253;BME280;7210;51.502;10.722;2023-04-05T13:29:11;99424.78;;;11.26;41.52